sensor_id;sensor_type;location;lat;lon;timestamp;P1;durP1;ratioP1;P2;durP2;ratioP2
44126;SDS011;29786;50.798;7.302;2023-06-22T00:00:28;6.3;;;5.2;;
44126;SDS011;29786;50.798;7.302;2023-06-22T00:02:56;6.5;;;5.4;;
44126;SDS011;29786;50.798;7.302;2023-06-22T00:04:10;5.6;;;5;;
44126;SDS011;29786;50.798;7.302;2023-06-22T00:05:24;5.6;;;4.9;;
44126;SDS011;29786;50.798;7.302;2023-06-22T00:06:39;5.8;;;5.2;;
44126;SDS011;29786;50.798;7.302;2023-06-22T00:09:07;5.7;;;5.1;;
44126;SDS011;29786;50.798;7.302;2023-06-22T00:10:21;8.2;;;5.3;;
44126;SDS011;29786;50.798;7.302;2023-06-22T00:11:35;7.6;;;5.5;;
44126;SDS011;29786;50.798;7.302;2023-06-22T00:14:04;6.1;;;5.5;;
44126;SDS011;29786;50.798;7.302;2023-06-22T00:15:17;7;;;5.5;;
44126;SDS011;29786;50.798;7.302;2023-06-22T00:16:32;6.2;;;5.6;;
44126;SDS011;29786;50.798;7.302;2023-06-22T00:19:00;5.5;;;5;;
44126;SDS011;29786;50.798;7.302;2023-06-22T00:20:14;6.2;;;5.6;;
44126;SDS011;29786;50.798;7.302;2023-06-22T00:21:28;8.1;;;5.5;;
44126;SDS011;29786;50.798;7.302;2023-06-22T00:23:56;7.2;;;5.3;;
44126;SDS011;29786;50.798;7.302;2023-06-22T00:25:11;5.5;;;5;;
44126;SDS011;29786;50.798;7.302;2023-06-22T00:26:25;5.7;;;5.1;;
44126;SDS011;29786;50.798;7.302;2023-06-22T00:27:39;5.8;;;5.3;;
44126;SDS011;29786;50.798;7.302;2023-06-22T00:30:07;6.5;;;5.4;;
44126;SDS011;29786;50.798;7.302;2023-06-22T00:31:21;6.3;;;4.8;;
44126;SDS011;29786;50.798;7.302;2023-06-22T00:32:35;6.3;;;5.5;;
44126;SDS011;29786;50.798;7.302;2023-06-22T00:35:04;6.3;;;5.4;;
44126;SDS011;29786;50.798;7.302;2023-06-22T00:36:18;6;;;5.4;;
44126;SDS011;29786;50.798;7.302;2023-06-22T00:37:32;6.5;;;5.3;;
44126;SDS011;29786;50.798;7.302;2023-06-22T00:40:00;6.7;;;5.1;;
44126;SDS011;29786;50.798;7.302;2023-06-22T00:41:14;6.4;;;5.7;;
44126;SDS011;29786;50.798;7.302;2023-06-22T00:42:28;7.6;;;5.6;;
44126;SDS011;29786;50.798;7.302;2023-06-22T00:44:57;5.9;;;5.3;;
44126;SDS011;29786;50.798;7.302;2023-06-22T00:46:11;6.1;;;5.3;;
44126;SDS011;29786;50.798;7.302;2023-06-22T00:47:25;7.6;;;5.8;;
44126;SDS011;29786;50.798;7.302;2023-06-22T00:49:53;5.8;;;5.2;;
44126;SDS011;29786;50.798;7.302;2023-06-22T00:51:07;6.5;;;5.8;;
44126;SDS011;29786;50.798;7.302;2023-06-22T00:52:22;5.8;;;5.2;;
44126;SDS011;29786;50.798;7.302;2023-06-22T00:53:36;7.2;;;5.5;;
44126;SDS011;29786;50.798;7.302;2023-06-22T00:56:04;5.9;;;4.9;;
44126;SDS011;29786;50.798;7.302;2023-06-22T00:57:18;6.2;;;5.2;;
44126;SDS011;29786;50.798;7.302;2023-06-22T00:58:32;5.7;;;5.1;;
44126;SDS011;29786;50.798;7.302;2023-06-22T01:01:00;8.7;;;5.6;;
44126;SDS011;29786;50.798;7.302;2023-06-22T01:02:15;6.8;;;5.7;;
44126;SDS011;29786;50.798;7.302;2023-06-22T01:03:29;7.2;;;5.9;;
44126;SDS011;29786;50.798;7.302;2023-06-22T01:05:59;7.1;;;5.8;;
44126;SDS011;29786;50.798;7.302;2023-06-22T01:07:47;6.8;;;5.8;;
44126;SDS011;29786;50.798;7.302;2023-06-22T01:08:43;7.3;;;5.4;;
44126;SDS011;29786;50.798;7.302;2023-06-22T01:09:43;6.6;;;5.7;;
44126;SDS011;29786;50.798;7.302;2023-06-22T01:12:08;6.2;;;5.6;;
44126;SDS011;29786;50.798;7.302;2023-06-22T01:13:26;6.4;;;5.8;;
44126;SDS011;29786;50.798;7.302;2023-06-22T01:14:38;6.3;;;5.4;;
44126;SDS011;29786;50.798;7.302;2023-06-22T01:17:05;6.4;;;5.8;;
44126;SDS011;29786;50.798;7.302;2023-06-22T01:18:18;7.1;;;6.4;;
44126;SDS011;29786;50.798;7.302;2023-06-22T01:19:35;6.9;;;6.3;;
44126;SDS011;29786;50.798;7.302;2023-06-22T01:20:47;7;;;6.3;;
44126;SDS011;29786;50.798;7.302;2023-06-22T01:22:01;7.7;;;6.3;;
44126;SDS011;29786;50.798;7.302;2023-06-22T01:23:26;6.4;;;5.8;;
44126;SDS011;29786;50.798;7.302;2023-06-22T01:24:32;6.7;;;6;;
44126;SDS011;29786;50.798;7.302;2023-06-22T01:27:09;6.2;;;5.6;;
44126;SDS011;29786;50.798;7.302;2023-06-22T01:28:20;7.5;;;6.5;;
44126;SDS011;29786;50.798;7.302;2023-06-22T01:29:26;7.6;;;6.8;;
44126;SDS011;29786;50.798;7.302;2023-06-22T01:31:54;7.9;;;6;;
44126;SDS011;29786;50.798;7.302;2023-06-22T01:33:10;7;;;6.3;;
44126;SDS011;29786;50.798;7.302;2023-06-22T01:34:22;9.1;;;6.2;;
44126;SDS011;29786;50.798;7.302;2023-06-22T01:35:37;7.2;;;6.2;;
44126;SDS011;29786;50.798;7.302;2023-06-22T01:38:04;9.3;;;6.6;;
44126;SDS011;29786;50.798;7.302;2023-06-22T01:39:19;8.8;;;6.3;;
44126;SDS011;29786;50.798;7.302;2023-06-22T01:40:33;7.7;;;6.6;;
44126;SDS011;29786;50.798;7.302;2023-06-22T01:43:01;8.1;;;6.3;;
44126;SDS011;29786;50.798;7.302;2023-06-22T01:44:15;7.9;;;6.1;;
44126;SDS011;29786;50.798;7.302;2023-06-22T01:45:29;9.2;;;6.5;;
44126;SDS011;29786;50.798;7.302;2023-06-22T01:47:57;7.7;;;6.3;;
44126;SDS011;29786;50.798;7.302;2023-06-22T01:49:12;8.1;;;6.8;;
44126;SDS011;29786;50.798;7.302;2023-06-22T01:50:26;7.4;;;6.6;;
44126;SDS011;29786;50.798;7.302;2023-06-22T01:51:40;7.3;;;6.1;;
44126;SDS011;29786;50.798;7.302;2023-06-22T01:52:54;7;;;6.3;;
44126;SDS011;29786;50.798;7.302;2023-06-22T01:54:08;6.7;;;6;;
44126;SDS011;29786;50.798;7.302;2023-06-22T01:55:22;7.7;;;6.9;;
44126;SDS011;29786;50.798;7.302;2023-06-22T01:56:36;7.5;;;6.2;;
44126;SDS011;29786;50.798;7.302;2023-06-22T02:00:07;7.1;;;6.4;;
44126;SDS011;29786;50.798;7.302;2023-06-22T02:00:20;7.8;;;6.3;;
44126;SDS011;29786;50.798;7.302;2023-06-22T02:01:35;8;;;6.2;;
44126;SDS011;29786;50.798;7.302;2023-06-22T02:04:03;7.5;;;6;;
44126;SDS011;29786;50.798;7.302;2023-06-22T02:05:16;8.6;;;6.4;;
44126;SDS011;29786;50.798;7.302;2023-06-22T02:06:31;7.2;;;6.2;;
44126;SDS011;29786;50.798;7.302;2023-06-22T02:08:59;7.7;;;6.5;;
44126;SDS011;29786;50.798;7.302;2023-06-22T02:10:12;9.4;;;6.8;;
44126;SDS011;29786;50.798;7.302;2023-06-22T02:11:26;7.7;;;6.5;;
44126;SDS011;29786;50.798;7.302;2023-06-22T02:13:55;7.2;;;6.5;;
44126;SDS011;29786;50.798;7.302;2023-06-22T02:15:09;8.1;;;6.2;;
44126;SDS011;29786;50.798;7.302;2023-06-22T02:16:23;8.9;;;6.7;;
44126;SDS011;29786;50.798;7.302;2023-06-22T02:17:37;7.6;;;6.7;;
44126;SDS011;29786;50.798;7.302;2023-06-22T02:20:05;7.7;;;6.6;;
44126;SDS011;29786;50.798;7.302;2023-06-22T02:21:19;8.9;;;6.7;;
44126;SDS011;29786;50.798;7.302;2023-06-22T02:22:33;8.2;;;6.4;;
44126;SDS011;29786;50.798;7.302;2023-06-22T02:25:01;8.5;;;6.4;;
44126;SDS011;29786;50.798;7.302;2023-06-22T02:26:16;7.5;;;6.7;;
44126;SDS011;29786;50.798;7.302;2023-06-22T02:27:30;8.3;;;6.7;;
44126;SDS011;29786;50.798;7.302;2023-06-22T02:29:58;8.5;;;6.4;;
44126;SDS011;29786;50.798;7.302;2023-06-22T02:32:26;7.1;;;6.4;;
44126;SDS011;29786;50.798;7.302;2023-06-22T02:34:55;7.6;;;6.8;;
44126;SDS011;29786;50.798;7.302;2023-06-22T02:36:09;7.8;;;7.1;;
44126;SDS011;29786;50.798;7.302;2023-06-22T02:37:23;7.6;;;6.8;;
44126;SDS011;29786;50.798;7.302;2023-06-22T02:38:37;7.6;;;6.5;;
44126;SDS011;29786;50.798;7.302;2023-06-22T02:41:05;8.7;;;7;;
44126;SDS011;29786;50.798;7.302;2023-06-22T02:42:19;7.7;;;6.9;;
44126;SDS011;29786;50.798;7.302;2023-06-22T02:43:33;8.3;;;7.1;;
44126;SDS011;29786;50.798;7.302;2023-06-22T02:46:02;7.8;;;7;;
44126;SDS011;29786;50.798;7.302;2023-06-22T02:47:16;8.7;;;7.1;;
44126;SDS011;29786;50.798;7.302;2023-06-22T02:48:30;7.7;;;6.9;;
44126;SDS011;29786;50.798;7.302;2023-06-22T02:50:58;9.5;;;7;;
44126;SDS011;29786;50.798;7.302;2023-06-22T02:52:12;9.1;;;7;;
44126;SDS011;29786;50.798;7.302;2023-06-22T02:53:27;8.5;;;7.2;;
44126;SDS011;29786;50.798;7.302;2023-06-22T02:55:55;7.9;;;6.7;;
44126;SDS011;29786;50.798;7.302;2023-06-22T02:57:09;7.2;;;6.5;;
44126;SDS011;29786;50.798;7.302;2023-06-22T02:58:23;7.9;;;6.6;;
44126;SDS011;29786;50.798;7.302;2023-06-22T02:59:37;7.7;;;6.9;;
44126;SDS011;29786;50.798;7.302;2023-06-22T03:02:06;7.3;;;6.6;;
44126;SDS011;29786;50.798;7.302;2023-06-22T03:03:20;7.7;;;6.8;;
44126;SDS011;29786;50.798;7.302;2023-06-22T03:04:34;7.5;;;6.8;;
44126;SDS011;29786;50.798;7.302;2023-06-22T03:07:02;7.6;;;6.8;;
44126;SDS011;29786;50.798;7.302;2023-06-22T03:08:16;7.4;;;6.6;;
44126;SDS011;29786;50.798;7.302;2023-06-22T03:09:30;7.9;;;7.1;;
44126;SDS011;29786;50.798;7.302;2023-06-22T03:11:59;8.3;;;7.3;;
44126;SDS011;29786;50.798;7.302;2023-06-22T03:13:13;9.5;;;7.2;;
44126;SDS011;29786;50.798;7.302;2023-06-22T03:14:27;8.6;;;7.7;;
44126;SDS011;29786;50.798;7.302;2023-06-22T03:16:55;8;;;6.6;;
44126;SDS011;29786;50.798;7.302;2023-06-22T03:18:09;8.2;;;7.4;;
44126;SDS011;29786;50.798;7.302;2023-06-22T03:19:23;7.9;;;7.1;;
44126;SDS011;29786;50.798;7.302;2023-06-22T03:20:38;8.7;;;7.8;;
44126;SDS011;29786;50.798;7.302;2023-06-22T03:23:06;11.2;;;7.9;;
44126;SDS011;29786;50.798;7.302;2023-06-22T03:24:20;8.6;;;7.8;;
44126;SDS011;29786;50.798;7.302;2023-06-22T03:25:35;8.6;;;7.7;;
44126;SDS011;29786;50.798;7.302;2023-06-22T03:28:02;10.3;;;7.8;;
44126;SDS011;29786;50.798;7.302;2023-06-22T03:29:16;8.4;;;7.6;;
44126;SDS011;29786;50.798;7.302;2023-06-22T03:30:31;8.8;;;7.9;;
44126;SDS011;29786;50.798;7.302;2023-06-22T03:32:59;10.3;;;8.2;;
44126;SDS011;29786;50.798;7.302;2023-06-22T03:34:13;12.3;;;7.8;;
44126;SDS011;29786;50.798;7.302;2023-06-22T03:35:27;8.3;;;7.5;;
44126;SDS011;29786;50.798;7.302;2023-06-22T03:37:55;8.6;;;7.7;;
44126;SDS011;29786;50.798;7.302;2023-06-22T03:39:09;10.2;;;7.7;;
44126;SDS011;29786;50.798;7.302;2023-06-22T03:40:29;10.1;;;8.5;;
44126;SDS011;29786;50.798;7.302;2023-06-22T03:41:38;8.4;;;7.6;;
44126;SDS011;29786;50.798;7.302;2023-06-22T03:44:06;9;;;8.1;;
44126;SDS011;29786;50.798;7.302;2023-06-22T03:45:20;8.3;;;7.4;;
44126;SDS011;29786;50.798;7.302;2023-06-22T03:46:34;9.2;;;7.9;;
44126;SDS011;29786;50.798;7.302;2023-06-22T03:49:03;11.5;;;8.9;;
44126;SDS011;29786;50.798;7.302;2023-06-22T03:50:17;11.4;;;9;;
44126;SDS011;29786;50.798;7.302;2023-06-22T03:51:32;11.4;;;9;;
44126;SDS011;29786;50.798;7.302;2023-06-22T03:53:59;9.6;;;7.6;;
44126;SDS011;29786;50.798;7.302;2023-06-22T03:55:13;8.9;;;8;;
44126;SDS011;29786;50.798;7.302;2023-06-22T03:56:27;10;;;8.3;;
44126;SDS011;29786;50.798;7.302;2023-06-22T03:58:56;9.4;;;8.2;;
44126;SDS011;29786;50.798;7.302;2023-06-22T04:00:10;9.1;;;8.2;;
44126;SDS011;29786;50.798;7.302;2023-06-22T04:01:24;10.4;;;8.2;;
44126;SDS011;29786;50.798;7.302;2023-06-22T04:02:38;9.2;;;8.2;;
44126;SDS011;29786;50.798;7.302;2023-06-22T04:05:07;9.3;;;8.3;;
44126;SDS011;29786;50.798;7.302;2023-06-22T04:06:20;8.9;;;7.7;;
44126;SDS011;29786;50.798;7.302;2023-06-22T04:07:35;9;;;8.1;;
44126;SDS011;29786;50.798;7.302;2023-06-22T04:10:03;9.8;;;8.8;;
44126;SDS011;29786;50.798;7.302;2023-06-22T04:11:17;12.8;;;8.8;;
44126;SDS011;29786;50.798;7.302;2023-06-22T04:12:31;8.6;;;7.7;;
44126;SDS011;29786;50.798;7.302;2023-06-22T04:16:13;9.3;;;8;;
44126;SDS011;29786;50.798;7.302;2023-06-22T04:17:28;8.2;;;7.3;;
44126;SDS011;29786;50.798;7.302;2023-06-22T04:19:56;10.1;;;8.2;;
44126;SDS011;29786;50.798;7.302;2023-06-22T04:21:10;9.1;;;8.2;;
44126;SDS011;29786;50.798;7.302;2023-06-22T04:22:24;12.3;;;8.5;;
44126;SDS011;29786;50.798;7.302;2023-06-22T04:23:38;9.4;;;8.3;;
44126;SDS011;29786;50.798;7.302;2023-06-22T04:26:07;11.6;;;8.5;;
44126;SDS011;29786;50.798;7.302;2023-06-22T04:27:21;9.6;;;7.4;;
44126;SDS011;29786;50.798;7.302;2023-06-22T04:28:35;11.4;;;7.7;;
44126;SDS011;29786;50.798;7.302;2023-06-22T04:31:03;8.1;;;7.3;;
44126;SDS011;29786;50.798;7.302;2023-06-22T04:32:17;9;;;7.1;;
44126;SDS011;29786;50.798;7.302;2023-06-22T04:33:31;10.7;;;7.8;;
44126;SDS011;29786;50.798;7.302;2023-06-22T04:36:00;10.4;;;7.9;;
44126;SDS011;29786;50.798;7.302;2023-06-22T04:37:14;9.2;;;7.7;;
44126;SDS011;29786;50.798;7.302;2023-06-22T04:38:28;9;;;7.4;;
44126;SDS011;29786;50.798;7.302;2023-06-22T04:40:56;8;;;7.2;;
44126;SDS011;29786;50.798;7.302;2023-06-22T04:42:12;7.7;;;6.9;;
44126;SDS011;29786;50.798;7.302;2023-06-22T04:43:24;9.9;;;7.6;;
44126;SDS011;29786;50.798;7.302;2023-06-22T04:44:39;7.7;;;6.9;;
44126;SDS011;29786;50.798;7.302;2023-06-22T04:47:07;8.7;;;7.8;;
44126;SDS011;29786;50.798;7.302;2023-06-22T04:48:21;8.3;;;7.4;;
44126;SDS011;29786;50.798;7.302;2023-06-22T04:49:35;9.2;;;7.5;;
44126;SDS011;29786;50.798;7.302;2023-06-22T04:52:04;9.2;;;7.6;;
44126;SDS011;29786;50.798;7.302;2023-06-22T04:53:17;11.3;;;7.6;;
44126;SDS011;29786;50.798;7.302;2023-06-22T04:54:32;9.1;;;7.5;;
44126;SDS011;29786;50.798;7.302;2023-06-22T04:57:01;8.4;;;7.5;;
44126;SDS011;29786;50.798;7.302;2023-06-22T04:58:14;8.5;;;7.7;;
44126;SDS011;29786;50.798;7.302;2023-06-22T04:59:28;9.7;;;8.2;;
44126;SDS011;29786;50.798;7.302;2023-06-22T05:01:57;9.9;;;7.9;;
44126;SDS011;29786;50.798;7.302;2023-06-22T05:03:10;10.5;;;8.4;;
44126;SDS011;29786;50.798;7.302;2023-06-22T05:04:25;14.2;;;8.7;;
44126;SDS011;29786;50.798;7.302;2023-06-22T05:05:39;8.5;;;7.6;;
44126;SDS011;29786;50.798;7.302;2023-06-22T05:06:53;11.5;;;8;;
44126;SDS011;29786;50.798;7.302;2023-06-22T05:08:07;10.9;;;8;;
44126;SDS011;29786;50.798;7.302;2023-06-22T05:09:21;12.4;;;8.3;;
44126;SDS011;29786;50.798;7.302;2023-06-22T05:10:35;8.7;;;7.6;;
44126;SDS011;29786;50.798;7.302;2023-06-22T05:13:04;8.9;;;7.6;;
44126;SDS011;29786;50.798;7.302;2023-06-22T05:14:18;8.8;;;7.3;;
44126;SDS011;29786;50.798;7.302;2023-06-22T05:15:32;8.6;;;6.6;;
44126;SDS011;29786;50.798;7.302;2023-06-22T05:18:00;10.1;;;7.8;;
44126;SDS011;29786;50.798;7.302;2023-06-22T05:19:14;8.6;;;6.9;;
44126;SDS011;29786;50.798;7.302;2023-06-22T05:20:28;9.1;;;7.4;;
44126;SDS011;29786;50.798;7.302;2023-06-22T05:22:57;8.6;;;7.4;;
44126;SDS011;29786;50.798;7.302;2023-06-22T05:24:11;8.3;;;6.8;;
44126;SDS011;29786;50.798;7.302;2023-06-22T05:25:25;9.1;;;7;;
44126;SDS011;29786;50.798;7.302;2023-06-22T05:27:53;9.4;;;7.3;;
44126;SDS011;29786;50.798;7.302;2023-06-22T05:29:07;9.9;;;7.5;;
44126;SDS011;29786;50.798;7.302;2023-06-22T05:30:21;9.2;;;7.7;;
44126;SDS011;29786;50.798;7.302;2023-06-22T05:31:36;10.1;;;8.2;;
44126;SDS011;29786;50.798;7.302;2023-06-22T05:34:04;8;;;7.1;;
44126;SDS011;29786;50.798;7.302;2023-06-22T05:35:18;10.5;;;8.1;;
44126;SDS011;29786;50.798;7.302;2023-06-22T05:36:32;8.9;;;7.2;;
44126;SDS011;29786;50.798;7.302;2023-06-22T05:39:10;8.7;;;7.7;;
44126;SDS011;29786;50.798;7.302;2023-06-22T05:40:15;9.7;;;8.2;;
44126;SDS011;29786;50.798;7.302;2023-06-22T05:41:29;9.9;;;7.8;;
44126;SDS011;29786;50.798;7.302;2023-06-22T05:43:57;8.6;;;7.7;;
44126;SDS011;29786;50.798;7.302;2023-06-22T05:45:11;9.6;;;7.7;;
44126;SDS011;29786;50.798;7.302;2023-06-22T05:46:25;9.5;;;8.1;;
44126;SDS011;29786;50.798;7.302;2023-06-22T05:48:53;8.5;;;7.6;;
44126;SDS011;29786;50.798;7.302;2023-06-22T05:50:08;9.3;;;7.9;;
44126;SDS011;29786;50.798;7.302;2023-06-22T05:51:22;8.9;;;7.2;;
44126;SDS011;29786;50.798;7.302;2023-06-22T05:52:36;9;;;7.5;;
44126;SDS011;29786;50.798;7.302;2023-06-22T05:55:04;9.6;;;7.5;;
44126;SDS011;29786;50.798;7.302;2023-06-22T05:56:18;9.9;;;7.5;;
44126;SDS011;29786;50.798;7.302;2023-06-22T05:57:32;8.7;;;7.7;;
44126;SDS011;29786;50.798;7.302;2023-06-22T06:00:01;8.3;;;7.2;;
44126;SDS011;29786;50.798;7.302;2023-06-22T06:01:15;8.9;;;7.7;;
44126;SDS011;29786;50.798;7.302;2023-06-22T06:02:29;9.5;;;7.8;;
44126;SDS011;29786;50.798;7.302;2023-06-22T06:04:57;9;;;6.8;;
44126;SDS011;29786;50.798;7.302;2023-06-22T06:06:11;7.9;;;6.8;;
44126;SDS011;29786;50.798;7.302;2023-06-22T06:07:25;8;;;7.1;;
44126;SDS011;29786;50.798;7.302;2023-06-22T06:09:54;7.8;;;6.7;;
44126;SDS011;29786;50.798;7.302;2023-06-22T06:11:08;9.6;;;6.8;;
44126;SDS011;29786;50.798;7.302;2023-06-22T06:12:22;9.4;;;7.1;;
44126;SDS011;29786;50.798;7.302;2023-06-22T06:13:36;7.7;;;6.4;;
44126;SDS011;29786;50.798;7.302;2023-06-22T06:16:04;7.4;;;6.4;;
44126;SDS011;29786;50.798;7.302;2023-06-22T06:17:19;7.2;;;6.1;;
44126;SDS011;29786;50.798;7.302;2023-06-22T06:18:33;7.5;;;6.7;;
44126;SDS011;29786;50.798;7.302;2023-06-22T06:21:01;7;;;6.3;;
44126;SDS011;29786;50.798;7.302;2023-06-22T06:22:15;7.9;;;5.9;;
44126;SDS011;29786;50.798;7.302;2023-06-22T06:23:29;6.8;;;6.1;;
44126;SDS011;29786;50.798;7.302;2023-06-22T06:25:57;6.1;;;5.5;;
44126;SDS011;29786;50.798;7.302;2023-06-22T06:27:12;6.6;;;5.9;;
44126;SDS011;29786;50.798;7.302;2023-06-22T06:28:26;6.7;;;6;;
44126;SDS011;29786;50.798;7.302;2023-06-22T06:29:40;6.9;;;5.9;;
44126;SDS011;29786;50.798;7.302;2023-06-22T06:30:54;7.5;;;5.9;;
44126;SDS011;29786;50.798;7.302;2023-06-22T06:32:08;6.5;;;5.8;;
44126;SDS011;29786;50.798;7.302;2023-06-22T06:33:22;6.4;;;5.7;;
44126;SDS011;29786;50.798;7.302;2023-06-22T06:34:36;6.5;;;5.9;;
44126;SDS011;29786;50.798;7.302;2023-06-22T06:37:05;6.1;;;5.5;;
44126;SDS011;29786;50.798;7.302;2023-06-22T06:38:19;6.6;;;5.9;;
44126;SDS011;29786;50.798;7.302;2023-06-22T06:39:33;7.3;;;6.3;;
44126;SDS011;29786;50.798;7.302;2023-06-22T06:42:01;6.9;;;6;;
44126;SDS011;29786;50.798;7.302;2023-06-22T06:43:15;7.4;;;5.9;;
44126;SDS011;29786;50.798;7.302;2023-06-22T06:44:29;8.7;;;6.5;;
44126;SDS011;29786;50.798;7.302;2023-06-22T06:46:58;9.6;;;7;;
44126;SDS011;29786;50.798;7.302;2023-06-22T06:48:12;8.3;;;7.5;;
44126;SDS011;29786;50.798;7.302;2023-06-22T06:49:26;9.7;;;7.1;;
44126;SDS011;29786;50.798;7.302;2023-06-22T06:51:54;9;;;7.3;;
44126;SDS011;29786;50.798;7.302;2023-06-22T06:53:09;8.3;;;6.9;;
44126;SDS011;29786;50.798;7.302;2023-06-22T06:54:23;8.6;;;7.7;;
44126;SDS011;29786;50.798;7.302;2023-06-22T06:55:37;9.6;;;8.4;;
44126;SDS011;29786;50.798;7.302;2023-06-22T06:58:05;7.8;;;7;;
44126;SDS011;29786;50.798;7.302;2023-06-22T06:59:19;8;;;7.2;;
44126;SDS011;29786;50.798;7.302;2023-06-22T07:00:33;8.3;;;7.3;;
44126;SDS011;29786;50.798;7.302;2023-06-22T07:03:01;8.2;;;7.4;;
44126;SDS011;29786;50.798;7.302;2023-06-22T07:04:16;9.3;;;6.9;;
44126;SDS011;29786;50.798;7.302;2023-06-22T07:05:30;9.8;;;7.6;;
44126;SDS011;29786;50.798;7.302;2023-06-22T07:07:58;8.6;;;7.4;;
44126;SDS011;29786;50.798;7.302;2023-06-22T07:09:12;9.7;;;8.2;;
44126;SDS011;29786;50.798;7.302;2023-06-22T07:10:26;8.2;;;7.1;;
44126;SDS011;29786;50.798;7.302;2023-06-22T07:12:55;10.4;;;7.4;;
44126;SDS011;29786;50.798;7.302;2023-06-22T07:14:09;8.9;;;7.5;;
44126;SDS011;29786;50.798;7.302;2023-06-22T07:15:23;8.3;;;7.5;;
44126;SDS011;29786;50.798;7.302;2023-06-22T07:16:37;9.5;;;7.7;;
44126;SDS011;29786;50.798;7.302;2023-06-22T07:19:05;8.6;;;7.7;;
44126;SDS011;29786;50.798;7.302;2023-06-22T07:20:19;7.8;;;7;;
44126;SDS011;29786;50.798;7.302;2023-06-22T07:21:33;8.4;;;7.5;;
44126;SDS011;29786;50.798;7.302;2023-06-22T07:24:02;9.3;;;7.5;;
44126;SDS011;29786;50.798;7.302;2023-06-22T07:25:16;8.5;;;7.6;;
44126;SDS011;29786;50.798;7.302;2023-06-22T07:26:30;9.1;;;7.9;;
44126;SDS011;29786;50.798;7.302;2023-06-22T07:28:58;8.8;;;7.9;;
44126;SDS011;29786;50.798;7.302;2023-06-22T07:30:12;8;;;7.2;;
44126;SDS011;29786;50.798;7.302;2023-06-22T07:31:27;8.6;;;7.7;;
44126;SDS011;29786;50.798;7.302;2023-06-22T07:33:55;8.4;;;7.5;;
44126;SDS011;29786;50.798;7.302;2023-06-22T07:35:09;7.7;;;6.9;;
44126;SDS011;29786;50.798;7.302;2023-06-22T07:36:23;8.7;;;7.8;;
44126;SDS011;29786;50.798;7.302;2023-06-22T07:37:37;7.9;;;7.1;;
44126;SDS011;29786;50.798;7.302;2023-06-22T07:40:06;8.5;;;7.7;;
44126;SDS011;29786;50.798;7.302;2023-06-22T07:41:20;8;;;7;;
44126;SDS011;29786;50.798;7.302;2023-06-22T07:42:34;10.2;;;7.5;;
44126;SDS011;29786;50.798;7.302;2023-06-22T07:45:02;8;;;7.2;;
44126;SDS011;29786;50.798;7.302;2023-06-22T07:46:16;8.4;;;7.5;;
44126;SDS011;29786;50.798;7.302;2023-06-22T07:47:30;8.4;;;7.5;;
44126;SDS011;29786;50.798;7.302;2023-06-22T07:49:59;8.6;;;7.7;;
44126;SDS011;29786;50.798;7.302;2023-06-22T07:51:13;7.7;;;6.9;;
44126;SDS011;29786;50.798;7.302;2023-06-22T07:52:27;8.2;;;7.4;;
44126;SDS011;29786;50.798;7.302;2023-06-22T07:53:41;8.4;;;7.6;;
44126;SDS011;29786;50.798;7.302;2023-06-22T07:54:55;8.4;;;7.2;;
44126;SDS011;29786;50.798;7.302;2023-06-22T07:56:10;8.6;;;7.7;;
44126;SDS011;29786;50.798;7.302;2023-06-22T07:57:23;8.6;;;7.7;;
44126;SDS011;29786;50.798;7.302;2023-06-22T07:58:37;9.9;;;8.6;;
44126;SDS011;29786;50.798;7.302;2023-06-22T08:01:06;9.2;;;8.3;;
44126;SDS011;29786;50.798;7.302;2023-06-22T08:02:20;9.2;;;8.2;;
44126;SDS011;29786;50.798;7.302;2023-06-22T08:03:34;10;;;8.9;;
44126;SDS011;29786;50.798;7.302;2023-06-22T08:06:02;9;;;8.1;;
44126;SDS011;29786;50.798;7.302;2023-06-22T08:07:17;9.4;;;8.5;;
44126;SDS011;29786;50.798;7.302;2023-06-22T08:08:31;10.3;;;8;;
44126;SDS011;29786;50.798;7.302;2023-06-22T08:10:59;9.3;;;8.4;;
44126;SDS011;29786;50.798;7.302;2023-06-22T08:12:13;9.2;;;8;;
44126;SDS011;29786;50.798;7.302;2023-06-22T08:13:27;9.8;;;8.8;;
44126;SDS011;29786;50.798;7.302;2023-06-22T08:15:55;9.8;;;8.2;;
44126;SDS011;29786;50.798;7.302;2023-06-22T08:17:10;9.4;;;8.4;;
44126;SDS011;29786;50.798;7.302;2023-06-22T08:18:24;8.6;;;7.7;;
44126;SDS011;29786;50.798;7.302;2023-06-22T08:19:38;9.3;;;8.3;;
44126;SDS011;29786;50.798;7.302;2023-06-22T08:22:06;8.9;;;8;;
44126;SDS011;29786;50.798;7.302;2023-06-22T08:23:20;9;;;8.1;;
44126;SDS011;29786;50.798;7.302;2023-06-22T08:24:34;8.4;;;7.6;;
44126;SDS011;29786;50.798;7.302;2023-06-22T08:27:03;9.7;;;8;;
44126;SDS011;29786;50.798;7.302;2023-06-22T08:28:17;8.9;;;8;;
44126;SDS011;29786;50.798;7.302;2023-06-22T08:29:31;8.3;;;7.5;;
44126;SDS011;29786;50.798;7.302;2023-06-22T08:31:59;8.2;;;7.4;;
44126;SDS011;29786;50.798;7.302;2023-06-22T08:33:13;9.9;;;7.9;;
44126;SDS011;29786;50.798;7.302;2023-06-22T08:34:27;8.3;;;7.5;;
44126;SDS011;29786;50.798;7.302;2023-06-22T08:36:56;8.3;;;7.5;;
44126;SDS011;29786;50.798;7.302;2023-06-22T08:38:10;8.6;;;7.4;;
44126;SDS011;29786;50.798;7.302;2023-06-22T08:39:24;8.4;;;7.5;;
44126;SDS011;29786;50.798;7.302;2023-06-22T08:40:38;9;;;7.5;;
44126;SDS011;29786;50.798;7.302;2023-06-22T08:43:06;10.6;;;7.7;;
44126;SDS011;29786;50.798;7.302;2023-06-22T08:44:20;7.8;;;7;;
44126;SDS011;29786;50.798;7.302;2023-06-22T08:45:35;8.2;;;7.2;;
44126;SDS011;29786;50.798;7.302;2023-06-22T08:48:03;8.2;;;7.3;;
44126;SDS011;29786;50.798;7.302;2023-06-22T08:49:17;8.7;;;7;;
44126;SDS011;29786;50.798;7.302;2023-06-22T08:50:31;8;;;7.2;;
44126;SDS011;29786;50.798;7.302;2023-06-22T08:52:59;9.1;;;7.3;;
44126;SDS011;29786;50.798;7.302;2023-06-22T08:54:13;8.1;;;7.3;;
44126;SDS011;29786;50.798;7.302;2023-06-22T08:55:28;8.5;;;7.3;;
44126;SDS011;29786;50.798;7.302;2023-06-22T08:57:56;8.8;;;7;;
44126;SDS011;29786;50.798;7.302;2023-06-22T08:59:10;7.4;;;6.7;;
44126;SDS011;29786;50.798;7.302;2023-06-22T09:00:24;7.4;;;6.5;;
44126;SDS011;29786;50.798;7.302;2023-06-22T09:01:38;7.5;;;6.7;;
44126;SDS011;29786;50.798;7.302;2023-06-22T09:04:07;7.4;;;6.7;;
44126;SDS011;29786;50.798;7.302;2023-06-22T09:05:21;7.3;;;6.6;;
44126;SDS011;29786;50.798;7.302;2023-06-22T09:06:35;8.6;;;7.2;;
44126;SDS011;29786;50.798;7.302;2023-06-22T09:09:03;7.5;;;6.7;;
44126;SDS011;29786;50.798;7.302;2023-06-22T09:10:17;7.1;;;6.1;;
44126;SDS011;29786;50.798;7.302;2023-06-22T09:11:31;6.8;;;5.9;;
44126;SDS011;29786;50.798;7.302;2023-06-22T09:14:00;8.2;;;6.2;;
44126;SDS011;29786;50.798;7.302;2023-06-22T09:15:14;6.2;;;5.6;;
44126;SDS011;29786;50.798;7.302;2023-06-22T09:16:28;8.6;;;6.6;;
44126;SDS011;29786;50.798;7.302;2023-06-22T09:18:56;7.1;;;6.4;;
44126;SDS011;29786;50.798;7.302;2023-06-22T09:20:10;6.5;;;5.8;;
44126;SDS011;29786;50.798;7.302;2023-06-22T09:21:24;7.3;;;5.8;;
44126;SDS011;29786;50.798;7.302;2023-06-22T09:22:39;7.6;;;5.9;;
44126;SDS011;29786;50.798;7.302;2023-06-22T09:25:07;6.8;;;6.1;;
44126;SDS011;29786;50.798;7.302;2023-06-22T09:26:21;7.2;;;6.2;;
44126;SDS011;29786;50.798;7.302;2023-06-22T09:27:35;6.6;;;5.8;;
44126;SDS011;29786;50.798;7.302;2023-06-22T09:30:04;6.8;;;6.1;;
44126;SDS011;29786;50.798;7.302;2023-06-22T09:31:17;6.7;;;5.9;;
44126;SDS011;29786;50.798;7.302;2023-06-22T09:32:32;7.3;;;5.8;;
44126;SDS011;29786;50.798;7.302;2023-06-22T09:35:03;6.4;;;5.8;;
44126;SDS011;29786;50.798;7.302;2023-06-22T09:36:14;6.9;;;6.2;;
44126;SDS011;29786;50.798;7.302;2023-06-22T09:37:28;8.7;;;6.4;;
44126;SDS011;29786;50.798;7.302;2023-06-22T09:39:56;8.5;;;6.4;;
44126;SDS011;29786;50.798;7.302;2023-06-22T09:41:11;7.2;;;6;;
44126;SDS011;29786;50.798;7.302;2023-06-22T09:42:25;8.2;;;6.6;;
44126;SDS011;29786;50.798;7.302;2023-06-22T09:44:53;9.2;;;6.3;;
44126;SDS011;29786;50.798;7.302;2023-06-22T09:46:07;7.1;;;6.4;;
44126;SDS011;29786;50.798;7.302;2023-06-22T09:47:21;8.4;;;6.5;;
44126;SDS011;29786;50.798;7.302;2023-06-22T09:48:35;6.8;;;6.1;;
44126;SDS011;29786;50.798;7.302;2023-06-22T09:51:04;8.1;;;6.5;;
44126;SDS011;29786;50.798;7.302;2023-06-22T09:52:18;6.8;;;6.1;;
44126;SDS011;29786;50.798;7.302;2023-06-22T09:53:32;10.5;;;7;;
44126;SDS011;29786;50.798;7.302;2023-06-22T09:56:01;7.3;;;6.3;;
44126;SDS011;29786;50.798;7.302;2023-06-22T09:57:14;7.1;;;6.4;;
44126;SDS011;29786;50.798;7.302;2023-06-22T09:58:28;10.3;;;7.2;;
44126;SDS011;29786;50.798;7.302;2023-06-22T10:00:57;8.5;;;6.3;;